sensor_id;sensor_type;location;lat;lon;timestamp;temperature;humidity
34201;DHT22;20469;55.638;37.670;2023-04-16T00:01:13;4.50;1.00
34201;DHT22;20469;55.638;37.670;2023-04-16T00:03:41;4.50;1.00
34201;DHT22;20469;55.638;37.670;2023-04-16T00:06:10;4.40;1.00
34201;DHT22;20469;55.638;37.670;2023-04-16T00:08:38;4.40;1.00
34201;DHT22;20469;55.638;37.670;2023-04-16T00:11:06;4.40;1.00
34201;DHT22;20469;55.638;37.670;2023-04-16T00:13:33;4.40;1.00
34201;DHT22;20469;55.638;37.670;2023-04-16T00:16:01;4.40;1.00
34201;DHT22;20469;55.638;37.670;2023-04-16T00:18:28;4.30;1.00
34201;DHT22;20469;55.638;37.670;2023-04-16T00:20:56;4.30;1.00
34201;DHT22;20469;55.638;37.670;2023-04-16T00:23:23;4.30;1.00
34201;DHT22;20469;55.638;37.670;2023-04-16T00:25:51;4.20;1.00
34201;DHT22;20469;55.638;37.670;2023-04-16T00:28:19;4.20;1.00
34201;DHT22;20469;55.638;37.670;2023-04-16T00:30:47;4.20;1.00
34201;DHT22;20469;55.638;37.670;2023-04-16T00:33:14;4.10;1.00
34201;DHT22;20469;55.638;37.670;2023-04-16T00:35:44;4.20;1.00
34201;DHT22;20469;55.638;37.670;2023-04-16T00:38:13;4.10;1.00
34201;DHT22;20469;55.638;37.670;2023-04-16T00:40:40;4.00;1.00
34201;DHT22;20469;55.638;37.670;2023-04-16T00:43:07;4.10;1.00
34201;DHT22;20469;55.638;37.670;2023-04-16T00:45:34;4.10;1.00
34201;DHT22;20469;55.638;37.670;2023-04-16T00:48:02;4.00;1.00
34201;DHT22;20469;55.638;37.670;2023-04-16T00:50:29;4.00;1.00
34201;DHT22;20469;55.638;37.670;2023-04-16T00:52:57;4.00;1.00
34201;DHT22;20469;55.638;37.670;2023-04-16T00:55:24;3.90;1.00
34201;DHT22;20469;55.638;37.670;2023-04-16T00:57:51;3.80;1.00
34201;DHT22;20469;55.638;37.670;2023-04-16T01:00:19;3.80;1.00
34201;DHT22;20469;55.638;37.670;2023-04-16T01:02:46;3.80;1.00
34201;DHT22;20469;55.638;37.670;2023-04-16T01:05:14;3.80;1.00
34201;DHT22;20469;55.638;37.670;2023-04-16T01:07:41;3.90;1.00
34201;DHT22;20469;55.638;37.670;2023-04-16T01:10:08;3.80;1.00
34201;DHT22;20469;55.638;37.670;2023-04-16T01:12:35;3.80;1.00
34201;DHT22;20469;55.638;37.670;2023-04-16T01:15:02;3.90;1.00
34201;DHT22;20469;55.638;37.670;2023-04-16T01:17:29;3.80;1.00
34201;DHT22;20469;55.638;37.670;2023-04-16T01:19:58;3.70;1.00
34201;DHT22;20469;55.638;37.670;2023-04-16T01:22:28;3.70;1.00
34201;DHT22;20469;55.638;37.670;2023-04-16T01:24:55;3.70;1.00
34201;DHT22;20469;55.638;37.670;2023-04-16T01:27:22;3.80;1.00
34201;DHT22;20469;55.638;37.670;2023-04-16T01:29:50;3.80;1.00
34201;DHT22;20469;55.638;37.670;2023-04-16T01:32:17;3.80;1.00
34201;DHT22;20469;55.638;37.670;2023-04-16T01:34:44;3.80;1.00
34201;DHT22;20469;55.638;37.670;2023-04-16T01:37:11;3.80;1.00
34201;DHT22;20469;55.638;37.670;2023-04-16T01:39:38;3.80;1.00
34201;DHT22;20469;55.638;37.670;2023-04-16T01:42:05;3.80;1.00
34201;DHT22;20469;55.638;37.670;2023-04-16T01:44:32;3.80;1.00
34201;DHT22;20469;55.638;37.670;2023-04-16T01:46:59;3.70;1.00
34201;DHT22;20469;55.638;37.670;2023-04-16T01:49:26;3.70;1.00
34201;DHT22;20469;55.638;37.670;2023-04-16T01:51:54;3.70;1.00
34201;DHT22;20469;55.638;37.670;2023-04-16T01:54:21;3.70;1.00
34201;DHT22;20469;55.638;37.670;2023-04-16T01:56:48;3.70;1.00
34201;DHT22;20469;55.638;37.670;2023-04-16T01:59:16;3.70;1.00
34201;DHT22;20469;55.638;37.670;2023-04-16T02:01:43;3.60;1.00
34201;DHT22;20469;55.638;37.670;2023-04-16T02:04:11;3.60;1.00
34201;DHT22;20469;55.638;37.670;2023-04-16T02:06:39;3.60;1.00
34201;DHT22;20469;55.638;37.670;2023-04-16T02:09:06;3.60;1.00
34201;DHT22;20469;55.638;37.670;2023-04-16T02:11:33;3.60;1.00
34201;DHT22;20469;55.638;37.670;2023-04-16T02:14:00;3.60;1.00
34201;DHT22;20469;55.638;37.670;2023-04-16T02:16:27;3.50;1.00
34201;DHT22;20469;55.638;37.670;2023-04-16T02:18:54;3.60;1.00
34201;DHT22;20469;55.638;37.670;2023-04-16T02:21:22;3.50;1.00
34201;DHT22;20469;55.638;37.670;2023-04-16T02:23:49;3.50;1.00
34201;DHT22;20469;55.638;37.670;2023-04-16T02:26:17;3.50;1.00
34201;DHT22;20469;55.638;37.670;2023-04-16T02:28:44;3.50;1.00
34201;DHT22;20469;55.638;37.670;2023-04-16T02:31:11;3.50;1.00
34201;DHT22;20469;55.638;37.670;2023-04-16T02:33:39;3.50;1.00
34201;DHT22;20469;55.638;37.670;2023-04-16T02:36:06;3.50;1.00
34201;DHT22;20469;55.638;37.670;2023-04-16T02:38:33;3.50;1.00
34201;DHT22;20469;55.638;37.670;2023-04-16T02:41:03;3.40;1.00
34201;DHT22;20469;55.638;37.670;2023-04-16T02:43:30;3.50;1.00
34201;DHT22;20469;55.638;37.670;2023-04-16T02:45:57;3.40;1.00
34201;DHT22;20469;55.638;37.670;2023-04-16T02:48:25;3.40;1.00
34201;DHT22;20469;55.638;37.670;2023-04-16T02:50:52;3.40;1.00
34201;DHT22;20469;55.638;37.670;2023-04-16T02:53:19;3.40;1.00
34201;DHT22;20469;55.638;37.670;2023-04-16T02:55:54;3.40;1.00
34201;DHT22;20469;55.638;37.670;2023-04-16T02:58:22;3.40;1.00
34201;DHT22;20469;55.638;37.670;2023-04-16T03:00:51;3.40;1.00
34201;DHT22;20469;55.638;37.670;2023-04-16T03:03:18;3.40;1.00
34201;DHT22;20469;55.638;37.670;2023-04-16T03:05:46;3.40;1.00
34201;DHT22;20469;55.638;37.670;2023-04-16T03:08:14;3.40;1.00
34201;DHT22;20469;55.638;37.670;2023-04-16T03:10:41;3.40;1.00
34201;DHT22;20469;55.638;37.670;2023-04-16T03:13:08;3.40;1.00
34201;DHT22;20469;55.638;37.670;2023-04-16T03:15:35;3.50;1.00
34201;DHT22;20469;55.638;37.670;2023-04-16T03:18:02;3.40;1.00
34201;DHT22;20469;55.638;37.670;2023-04-16T03:20:29;3.40;1.00
34201;DHT22;20469;55.638;37.670;2023-04-16T03:22:56;3.50;1.00
34201;DHT22;20469;55.638;37.670;2023-04-16T03:25:23;3.50;1.00
34201;DHT22;20469;55.638;37.670;2023-04-16T03:27:50;3.50;1.00
34201;DHT22;20469;55.638;37.670;2023-04-16T03:30:18;3.50;1.00
34201;DHT22;20469;55.638;37.670;2023-04-16T03:32:45;3.60;1.00
34201;DHT22;20469;55.638;37.670;2023-04-16T03:35:15;3.60;1.00
34201;DHT22;20469;55.638;37.670;2023-04-16T03:37:42;3.50;1.00
34201;DHT22;20469;55.638;37.670;2023-04-16T03:40:09;3.70;1.00
34201;DHT22;20469;55.638;37.670;2023-04-16T03:42:36;3.60;1.00
34201;DHT22;20469;55.638;37.670;2023-04-16T03:45:04;3.70;1.00
34201;DHT22;20469;55.638;37.670;2023-04-16T03:47:31;3.80;1.00
34201;DHT22;20469;55.638;37.670;2023-04-16T03:49:58;3.90;1.00
34201;DHT22;20469;55.638;37.670;2023-04-16T03:52:25;4.00;1.00
34201;DHT22;20469;55.638;37.670;2023-04-16T03:54:53;4.10;1.00
34201;DHT22;20469;55.638;37.670;2023-04-16T03:57:21;3.80;1.00
34201;DHT22;20469;55.638;37.670;2023-04-16T03:59:48;3.90;1.00
34201;DHT22;20469;55.638;37.670;2023-04-16T04:02:15;4.20;1.00
34201;DHT22;20469;55.638;37.670;2023-04-16T04:04:42;4.20;1.00
34201;DHT22;20469;55.638;37.670;2023-04-16T04:07:09;4.40;1.00
34201;DHT22;20469;55.638;37.670;2023-04-16T04:09:36;4.40;1.00
34201;DHT22;20469;55.638;37.670;2023-04-16T04:12:04;4.50;1.00
34201;DHT22;20469;55.638;37.670;2023-04-16T04:14:31;4.80;1.00
34201;DHT22;20469;55.638;37.670;2023-04-16T04:16:58;4.80;1.00
34201;DHT22;20469;55.638;37.670;2023-04-16T04:19:25;4.80;1.00
34201;DHT22;20469;55.638;37.670;2023-04-16T04:21:52;4.90;1.00
34201;DHT22;20469;55.638;37.670;2023-04-16T04:24:19;5.00;1.00
34201;DHT22;20469;55.638;37.670;2023-04-16T04:26:46;5.10;1.00
34201;DHT22;20469;55.638;37.670;2023-04-16T04:29:13;5.20;1.00
34201;DHT22;20469;55.638;37.670;2023-04-16T04:31:43;5.40;1.00
34201;DHT22;20469;55.638;37.670;2023-04-16T04:34:10;5.30;1.00
34201;DHT22;20469;55.638;37.670;2023-04-16T04:36:38;5.20;1.00
34201;DHT22;20469;55.638;37.670;2023-04-16T04:39:05;5.40;1.00
34201;DHT22;20469;55.638;37.670;2023-04-16T04:41:32;5.70;1.00
34201;DHT22;20469;55.638;37.670;2023-04-16T04:43:59;5.80;1.00
34201;DHT22;20469;55.638;37.670;2023-04-16T04:46:27;5.70;1.00
34201;DHT22;20469;55.638;37.670;2023-04-16T04:48:54;6.00;1.00
34201;DHT22;20469;55.638;37.670;2023-04-16T04:51:21;6.20;1.00
34201;DHT22;20469;55.638;37.670;2023-04-16T04:53:48;6.40;1.00
34201;DHT22;20469;55.638;37.670;2023-04-16T04:56:15;6.40;1.00
34201;DHT22;20469;55.638;37.670;2023-04-16T04:58:42;6.20;1.00
34201;DHT22;20469;55.638;37.670;2023-04-16T05:01:09;6.40;1.00
34201;DHT22;20469;55.638;37.670;2023-04-16T05:03:37;6.50;1.00
34201;DHT22;20469;55.638;37.670;2023-04-16T05:06:05;6.50;1.00
34201;DHT22;20469;55.638;37.670;2023-04-16T05:08:32;6.70;1.00
34201;DHT22;20469;55.638;37.670;2023-04-16T05:10:59;6.80;1.00
34201;DHT22;20469;55.638;37.670;2023-04-16T05:13:26;6.60;1.00
34201;DHT22;20469;55.638;37.670;2023-04-16T05:15:54;6.50;1.00
34201;DHT22;20469;55.638;37.670;2023-04-16T05:18:21;6.60;1.00
34201;DHT22;20469;55.638;37.670;2023-04-16T05:20:48;6.50;1.00
34201;DHT22;20469;55.638;37.670;2023-04-16T05:23:15;6.70;1.00
34201;DHT22;20469;55.638;37.670;2023-04-16T05:25:42;6.70;1.00
34201;DHT22;20469;55.638;37.670;2023-04-16T05:28:09;6.80;1.00
34201;DHT22;20469;55.638;37.670;2023-04-16T05:30:37;6.90;1.00
34201;DHT22;20469;55.638;37.670;2023-04-16T05:33:04;6.80;1.00
34201;DHT22;20469;55.638;37.670;2023-04-16T05:35:31;7.00;1.00
34201;DHT22;20469;55.638;37.670;2023-04-16T05:37:58;6.90;1.00
34201;DHT22;20469;55.638;37.670;2023-04-16T05:40:25;7.10;1.00
34201;DHT22;20469;55.638;37.670;2023-04-16T05:42:52;7.30;1.00
34201;DHT22;20469;55.638;37.670;2023-04-16T05:45:19;7.40;1.00
34201;DHT22;20469;55.638;37.670;2023-04-16T05:47:46;7.80;1.00
34201;DHT22;20469;55.638;37.670;2023-04-16T05:50:14;8.10;1.00
34201;DHT22;20469;55.638;37.670;2023-04-16T05:52:41;8.10;1.00
34201;DHT22;20469;55.638;37.670;2023-04-16T05:55:08;8.00;1.00
34201;DHT22;20469;55.638;37.670;2023-04-16T05:57:36;8.40;1.00
34201;DHT22;20469;55.638;37.670;2023-04-16T06:00:03;8.00;1.00
34201;DHT22;20469;55.638;37.670;2023-04-16T06:02:30;8.10;1.00
34201;DHT22;20469;55.638;37.670;2023-04-16T06:04:58;8.50;1.00
34201;DHT22;20469;55.638;37.670;2023-04-16T06:07:25;9.00;1.00
34201;DHT22;20469;55.638;37.670;2023-04-16T06:09:52;8.70;1.00
34201;DHT22;20469;55.638;37.670;2023-04-16T06:12:19;9.00;1.00
34201;DHT22;20469;55.638;37.670;2023-04-16T06:14:46;9.00;1.00
34201;DHT22;20469;55.638;37.670;2023-04-16T06:17:13;9.10;1.00
34201;DHT22;20469;55.638;37.670;2023-04-16T06:19:40;9.70;1.00
34201;DHT22;20469;55.638;37.670;2023-04-16T06:22:07;10.00;1.00
34201;DHT22;20469;55.638;37.670;2023-04-16T06:24:35;10.10;1.00
34201;DHT22;20469;55.638;37.670;2023-04-16T06:27:02;10.20;1.00
34201;DHT22;20469;55.638;37.670;2023-04-16T06:29:29;9.60;1.00
34201;DHT22;20469;55.638;37.670;2023-04-16T06:32:07;9.60;1.00
34201;DHT22;20469;55.638;37.670;2023-04-16T06:34:34;10.10;1.00
34201;DHT22;20469;55.638;37.670;2023-04-16T06:37:01;9.60;1.00
34201;DHT22;20469;55.638;37.670;2023-04-16T06:39:28;9.40;1.00
34201;DHT22;20469;55.638;37.670;2023-04-16T06:41:56;9.20;1.00
34201;DHT22;20469;55.638;37.670;2023-04-16T06:44:23;9.20;1.00
34201;DHT22;20469;55.638;37.670;2023-04-16T06:46:51;9.50;1.00
34201;DHT22;20469;55.638;37.670;2023-04-16T06:49:18;9.30;1.00
34201;DHT22;20469;55.638;37.670;2023-04-16T06:51:45;9.50;1.00
34201;DHT22;20469;55.638;37.670;2023-04-16T06:54:12;9.30;1.00
34201;DHT22;20469;55.638;37.670;2023-04-16T06:56:40;9.20;1.00
34201;DHT22;20469;55.638;37.670;2023-04-16T06:59:07;9.70;1.00
34201;DHT22;20469;55.638;37.670;2023-04-16T07:01:34;9.90;1.00
34201;DHT22;20469;55.638;37.670;2023-04-16T07:04:02;9.60;1.00
34201;DHT22;20469;55.638;37.670;2023-04-16T07:06:30;9.60;1.00
34201;DHT22;20469;55.638;37.670;2023-04-16T07:08:57;10.20;1.00
34201;DHT22;20469;55.638;37.670;2023-04-16T07:11:24;10.10;1.00
34201;DHT22;20469;55.638;37.670;2023-04-16T07:13:52;10.70;1.00
34201;DHT22;20469;55.638;37.670;2023-04-16T07:16:19;10.40;1.00
34201;DHT22;20469;55.638;37.670;2023-04-16T07:18:46;10.40;1.00
34201;DHT22;20469;55.638;37.670;2023-04-16T07:21:14;10.30;1.00
34201;DHT22;20469;55.638;37.670;2023-04-16T07:23:41;9.90;1.00
34201;DHT22;20469;55.638;37.670;2023-04-16T07:26:08;10.30;1.00
34201;DHT22;20469;55.638;37.670;2023-04-16T07:28:35;10.40;1.00
34201;DHT22;20469;55.638;37.670;2023-04-16T07:31:02;10.60;1.00
34201;DHT22;20469;55.638;37.670;2023-04-16T07:33:29;10.90;1.00
34201;DHT22;20469;55.638;37.670;2023-04-16T07:35:57;10.60;1.00
34201;DHT22;20469;55.638;37.670;2023-04-16T07:38:24;10.80;1.00
34201;DHT22;20469;55.638;37.670;2023-04-16T07:40:51;10.50;1.00
34201;DHT22;20469;55.638;37.670;2023-04-16T07:43:18;10.60;1.00
34201;DHT22;20469;55.638;37.670;2023-04-16T07:45:45;10.70;1.00
34201;DHT22;20469;55.638;37.670;2023-04-16T07:48:12;10.50;1.00
34201;DHT22;20469;55.638;37.670;2023-04-16T07:50:39;10.70;1.00
34201;DHT22;20469;55.638;37.670;2023-04-16T07:53:09;11.00;1.00
34201;DHT22;20469;55.638;37.670;2023-04-16T07:55:36;10.80;1.00
34201;DHT22;20469;55.638;37.670;2023-04-16T07:58:03;10.40;1.00
34201;DHT22;20469;55.638;37.670;2023-04-16T08:00:32;11.10;1.00
34201;DHT22;20469;55.638;37.670;2023-04-16T08:02:59;11.70;1.00
34201;DHT22;20469;55.638;37.670;2023-04-16T08:05:26;12.60;1.00
34201;DHT22;20469;55.638;37.670;2023-04-16T08:07:53;12.80;1.00
34201;DHT22;20469;55.638;37.670;2023-04-16T08:10:20;13.60;1.00
34201;DHT22;20469;55.638;37.670;2023-04-16T08:12:48;13.20;1.00
34201;DHT22;20469;55.638;37.670;2023-04-16T08:15:15;12.20;1.00
34201;DHT22;20469;55.638;37.670;2023-04-16T08:17:42;14.20;1.00
34201;DHT22;20469;55.638;37.670;2023-04-16T08:20:10;14.00;1.00
34201;DHT22;20469;55.638;37.670;2023-04-16T08:22:42;15.10;1.00
34201;DHT22;20469;55.638;37.670;2023-04-16T08:25:10;13.30;1.00
34201;DHT22;20469;55.638;37.670;2023-04-16T08:27:37;12.20;1.00
34201;DHT22;20469;55.638;37.670;2023-04-16T08:30:05;12.30;1.00
34201;DHT22;20469;55.638;37.670;2023-04-16T08:32:32;12.10;1.00
34201;DHT22;20469;55.638;37.670;2023-04-16T08:35:00;13.20;1.00
34201;DHT22;20469;55.638;37.670;2023-04-16T08:37:28;14.80;1.00
34201;DHT22;20469;55.638;37.670;2023-04-16T08:39:55;15.00;1.00
34201;DHT22;20469;55.638;37.670;2023-04-16T08:42:32;14.60;1.00
34201;DHT22;20469;55.638;37.670;2023-04-16T08:45:13;14.50;1.00
34201;DHT22;20469;55.638;37.670;2023-04-16T08:47:46;14.90;1.00
34201;DHT22;20469;55.638;37.670;2023-04-16T08:50:26;14.20;1.00
34201;DHT22;20469;55.638;37.670;2023-04-16T08:53:03;13.40;1.00
34201;DHT22;20469;55.638;37.670;2023-04-16T08:55:38;14.10;1.00
34201;DHT22;20469;55.638;37.670;2023-04-16T08:58:22;15.90;1.00
34201;DHT22;20469;55.638;37.670;2023-04-16T09:00:50;16.10;1.00
34201;DHT22;20469;55.638;37.670;2023-04-16T09:03:17;13.70;1.00
34201;DHT22;20469;55.638;37.670;2023-04-16T09:05:48;14.40;1.00
34201;DHT22;20469;55.638;37.670;2023-04-16T09:08:16;15.00;1.00
34201;DHT22;20469;55.638;37.670;2023-04-16T09:10:43;14.50;1.00
34201;DHT22;20469;55.638;37.670;2023-04-16T09:13:11;14.90;1.00
34201;DHT22;20469;55.638;37.670;2023-04-16T09:15:40;15.00;1.00
34201;DHT22;20469;55.638;37.670;2023-04-16T09:18:08;14.60;1.00
34201;DHT22;20469;55.638;37.670;2023-04-16T09:20:36;13.80;1.00
34201;DHT22;20469;55.638;37.670;2023-04-16T09:23:03;13.90;1.00
34201;DHT22;20469;55.638;37.670;2023-04-16T09:25:33;13.90;1.00
34201;DHT22;20469;55.638;37.670;2023-04-16T09:28:01;13.90;1.00
34201;DHT22;20469;55.638;37.670;2023-04-16T09:30:28;13.80;1.00
34201;DHT22;20469;55.638;37.670;2023-04-16T09:33:30;14.50;1.00
34201;DHT22;20469;55.638;37.670;2023-04-16T09:36:01;15.40;1.00
34201;DHT22;20469;55.638;37.670;2023-04-16T09:38:45;14.10;1.00
34201;DHT22;20469;55.638;37.670;2023-04-16T09:41:14;13.30;1.00
34201;DHT22;20469;55.638;37.670;2023-04-16T09:43:52;13.10;1.00
34201;DHT22;20469;55.638;37.670;2023-04-16T09:46:21;13.10;1.00
34201;DHT22;20469;55.638;37.670;2023-04-16T09:48:49;13.80;1.00
34201;DHT22;20469;55.638;37.670;2023-04-16T09:51:16;14.00;1.00
34201;DHT22;20469;55.638;37.670;2023-04-16T09:53:43;14.70;1.00
34201;DHT22;20469;55.638;37.670;2023-04-16T09:56:11;14.70;1.00
34201;DHT22;20469;55.638;37.670;2023-04-16T09:58:38;16.10;1.00
34201;DHT22;20469;55.638;37.670;2023-04-16T10:01:08;14.50;1.00
34201;DHT22;20469;55.638;37.670;2023-04-16T10:03:38;14.20;1.00
34201;DHT22;20469;55.638;37.670;2023-04-16T10:06:18;16.00;1.00
34201;DHT22;20469;55.638;37.670;2023-04-16T10:08:49;16.00;1.00
34201;DHT22;20469;55.638;37.670;2023-04-16T10:11:17;15.50;1.00
34201;DHT22;20469;55.638;37.670;2023-04-16T10:13:45;16.20;1.00
34201;DHT22;20469;55.638;37.670;2023-04-16T10:16:12;16.60;1.00
34201;DHT22;20469;55.638;37.670;2023-04-16T10:18:41;16.60;1.00
34201;DHT22;20469;55.638;37.670;2023-04-16T10:21:09;14.40;1.00
34201;DHT22;20469;55.638;37.670;2023-04-16T10:23:39;15.00;1.00
34201;DHT22;20469;55.638;37.670;2023-04-16T10:26:06;14.70;1.00
34201;DHT22;20469;55.638;37.670;2023-04-16T10:28:33;15.30;1.00
34201;DHT22;20469;55.638;37.670;2023-04-16T10:31:03;16.40;1.00
34201;DHT22;20469;55.638;37.670;2023-04-16T10:33:34;17.10;1.00
34201;DHT22;20469;55.638;37.670;2023-04-16T10:36:17;17.90;1.00
34201;DHT22;20469;55.638;37.670;2023-04-16T10:38:49;17.70;1.00
34201;DHT22;20469;55.638;37.670;2023-04-16T10:41:21;17.90;1.00
34201;DHT22;20469;55.638;37.670;2023-04-16T10:43:49;19.80;1.00
34201;DHT22;20469;55.638;37.670;2023-04-16T10:46:18;17.50;1.00
34201;DHT22;20469;55.638;37.670;2023-04-16T10:48:46;17.80;1.00
34201;DHT22;20469;55.638;37.670;2023-04-16T10:51:28;16.30;1.00
34201;DHT22;20469;55.638;37.670;2023-04-16T10:54:01;16.20;1.00
34201;DHT22;20469;55.638;37.670;2023-04-16T10:56:31;16.60;1.00
34201;DHT22;20469;55.638;37.670;2023-04-16T10:58:58;17.00;1.00
34201;DHT22;20469;55.638;37.670;2023-04-16T11:01:36;15.80;1.00
34201;DHT22;20469;55.638;37.670;2023-04-16T11:10:02;17.40;1.00
34201;DHT22;20469;55.638;37.670;2023-04-16T11:15:12;18.80;1.00
34201;DHT22;20469;55.638;37.670;2023-04-16T11:17:48;16.50;1.00
34201;DHT22;20469;55.638;37.670;2023-04-16T11:20:22;20.50;1.00
34201;DHT22;20469;55.638;37.670;2023-04-16T11:22:50;15.50;1.00
34201;DHT22;20469;55.638;37.670;2023-04-16T11:25:21;16.50;1.00
34201;DHT22;20469;55.638;37.670;2023-04-16T11:27:50;16.70;1.00
34201;DHT22;20469;55.638;37.670;2023-04-16T11:30:26;18.60;1.00
34201;DHT22;20469;55.638;37.670;2023-04-16T11:32:54;16.60;1.00
34201;DHT22;20469;55.638;37.670;2023-04-16T11:35:21;15.60;1.00
34201;DHT22;20469;55.638;37.670;2023-04-16T11:37:48;16.60;1.00
34201;DHT22;20469;55.638;37.670;2023-04-16T11:40:15;18.50;1.00
34201;DHT22;20469;55.638;37.670;2023-04-16T11:42:42;20.60;1.00
34201;DHT22;20469;55.638;37.670;2023-04-16T11:45:11;19.40;1.00
34201;DHT22;20469;55.638;37.670;2023-04-16T11:47:49;17.90;1.00
34201;DHT22;20469;55.638;37.670;2023-04-16T11:50:27;17.60;1.00
34201;DHT22;20469;55.638;37.670;2023-04-16T11:52:56;17.70;1.00
34201;DHT22;20469;55.638;37.670;2023-04-16T11:55:23;17.00;1.00
34201;DHT22;20469;55.638;37.670;2023-04-16T11:57:51;17.50;1.00
34201;DHT22;20469;55.638;37.670;2023-04-16T12:00:18;17.20;1.00
34201;DHT22;20469;55.638;37.670;2023-04-16T12:02:53;18.40;1.00
34201;DHT22;20469;55.638;37.670;2023-04-16T12:05:37;16.40;1.00
34201;DHT22;20469;55.638;37.670;2023-04-16T12:08:07;16.50;1.00
34201;DHT22;20469;55.638;37.670;2023-04-16T12:10:56;19.10;1.00
34201;DHT22;20469;55.638;37.670;2023-04-16T12:13:24;18.30;1.00
34201;DHT22;20469;55.638;37.670;2023-04-16T12:15:54;18.70;1.00
34201;DHT22;20469;55.638;37.670;2023-04-16T12:18:24;18.60;1.00
34201;DHT22;20469;55.638;37.670;2023-04-16T12:20:54;18.10;1.00
34201;DHT22;20469;55.638;37.670;2023-04-16T12:23:32;18.50;1.00
34201;DHT22;20469;55.638;37.670;2023-04-16T12:26:06;19.00;1.00
34201;DHT22;20469;55.638;37.670;2023-04-16T12:28:36;17.60;1.00
34201;DHT22;20469;55.638;37.670;2023-04-16T12:31:05;18.00;1.00
34201;DHT22;20469;55.638;37.670;2023-04-16T12:33:33;17.50;1.00
34201;DHT22;20469;55.638;37.670;2023-04-16T12:36:00;18.00;1.00
34201;DHT22;20469;55.638;37.670;2023-04-16T12:38:28;17.20;1.00
34201;DHT22;20469;55.638;37.670;2023-04-16T12:40:56;17.30;1.00
34201;DHT22;20469;55.638;37.670;2023-04-16T12:43:24;17.50;1.00
34201;DHT22;20469;55.638;37.670;2023-04-16T12:45:51;18.70;1.00
34201;DHT22;20469;55.638;37.670;2023-04-16T12:48:19;17.80;1.00
34201;DHT22;20469;55.638;37.670;2023-04-16T12:50:46;16.80;1.00
34201;DHT22;20469;55.638;37.670;2023-04-16T12:53:13;17.50;1.00
34201;DHT22;20469;55.638;37.670;2023-04-16T12:55:40;16.40;1.00
34201;DHT22;20469;55.638;37.670;2023-04-16T12:58:07;17.20;1.00
34201;DHT22;20469;55.638;37.670;2023-04-16T13:00:38;19.20;1.00
34201;DHT22;20469;55.638;37.670;2023-04-16T13:03:06;20.00;1.00
34201;DHT22;20469;55.638;37.670;2023-04-16T13:05:33;18.00;1.00
34201;DHT22;20469;55.638;37.670;2023-04-16T13:08:00;18.40;1.00
34201;DHT22;20469;55.638;37.670;2023-04-16T13:10:28;18.30;1.00
34201;DHT22;20469;55.638;37.670;2023-04-16T13:12:56;19.20;1.00
34201;DHT22;20469;55.638;37.670;2023-04-16T13:15:23;20.80;1.00
34201;DHT22;20469;55.638;37.670;2023-04-16T13:17:50;19.30;1.00
34201;DHT22;20469;55.638;37.670;2023-04-16T13:20:17;20.60;1.00
34201;DHT22;20469;55.638;37.670;2023-04-16T13:22:44;22.00;1.00
34201;DHT22;20469;55.638;37.670;2023-04-16T13:25:11;22.20;1.00
34201;DHT22;20469;55.638;37.670;2023-04-16T13:27:38;21.50;1.00
34201;DHT22;20469;55.638;37.670;2023-04-16T13:30:06;19.00;1.00
34201;DHT22;20469;55.638;37.670;2023-04-16T13:32:33;18.00;1.00
34201;DHT22;20469;55.638;37.670;2023-04-16T13:35:00;17.60;1.00
34201;DHT22;20469;55.638;37.670;2023-04-16T13:37:28;19.80;1.00
34201;DHT22;20469;55.638;37.670;2023-04-16T13:39:56;19.00;1.00
34201;DHT22;20469;55.638;37.670;2023-04-16T13:42:23;17.70;1.00
34201;DHT22;20469;55.638;37.670;2023-04-16T13:44:50;17.70;1.00
34201;DHT22;20469;55.638;37.670;2023-04-16T13:47:20;18.10;1.00
34201;DHT22;20469;55.638;37.670;2023-04-16T13:49:47;19.70;1.00
34201;DHT22;20469;55.638;37.670;2023-04-16T13:52:14;20.40;1.00
34201;DHT22;20469;55.638;37.670;2023-04-16T13:54:41;19.70;1.00
34201;DHT22;20469;55.638;37.670;2023-04-16T13:57:08;20.00;1.00
34201;DHT22;20469;55.638;37.670;2023-04-16T13:59:35;19.70;1.00
34201;DHT22;20469;55.638;37.670;2023-04-16T14:02:03;19.90;1.00
34201;DHT22;20469;55.638;37.670;2023-04-16T14:04:30;20.60;1.00
34201;DHT22;20469;55.638;37.670;2023-04-16T14:06:58;19.90;1.00
34201;DHT22;20469;55.638;37.670;2023-04-16T14:09:24;19.70;1.00
34201;DHT22;20469;55.638;37.670;2023-04-16T14:11:52;18.80;1.00
34201;DHT22;20469;55.638;37.670;2023-04-16T14:14:19;18.20;1.00
34201;DHT22;20469;55.638;37.670;2023-04-16T14:16:46;18.00;1.00
34201;DHT22;20469;55.638;37.670;2023-04-16T14:19:13;18.10;1.00
34201;DHT22;20469;55.638;37.670;2023-04-16T14:21:41;19.10;1.00
34201;DHT22;20469;55.638;37.670;2023-04-16T14:24:08;18.10;1.00
34201;DHT22;20469;55.638;37.670;2023-04-16T14:26:36;19.60;1.00
34201;DHT22;20469;55.638;37.670;2023-04-16T14:29:04;17.60;1.00
34201;DHT22;20469;55.638;37.670;2023-04-16T14:31:32;17.40;1.00
34201;DHT22;20469;55.638;37.670;2023-04-16T14:33:59;17.90;1.00
34201;DHT22;20469;55.638;37.670;2023-04-16T14:36:26;16.80;1.00
34201;DHT22;20469;55.638;37.670;2023-04-16T14:38:53;17.50;1.00
34201;DHT22;20469;55.638;37.670;2023-04-16T14:41:20;16.10;1.00
34201;DHT22;20469;55.638;37.670;2023-04-16T14:43:48;15.30;1.00
34201;DHT22;20469;55.638;37.670;2023-04-16T14:46:15;16.70;1.00
34201;DHT22;20469;55.638;37.670;2023-04-16T14:48:43;16.70;1.00
34201;DHT22;20469;55.638;37.670;2023-04-16T14:51:11;16.00;1.00
34201;DHT22;20469;55.638;37.670;2023-04-16T14:53:38;16.20;1.00
34201;DHT22;20469;55.638;37.670;2023-04-16T14:56:05;17.10;1.00
34201;DHT22;20469;55.638;37.670;2023-04-16T14:58:35;17.10;1.00
34201;DHT22;20469;55.638;37.670;2023-04-16T15:01:05;17.00;1.00
34201;DHT22;20469;55.638;37.670;2023-04-16T15:03:32;16.10;1.00
34201;DHT22;20469;55.638;37.670;2023-04-16T15:05:59;15.60;1.00
34201;DHT22;20469;55.638;37.670;2023-04-16T15:08:27;15.10;1.00
34201;DHT22;20469;55.638;37.670;2023-04-16T15:10:54;14.60;1.00
34201;DHT22;20469;55.638;37.670;2023-04-16T15:13:21;14.50;1.00
34201;DHT22;20469;55.638;37.670;2023-04-16T15:15:48;14.20;1.00
34201;DHT22;20469;55.638;37.670;2023-04-16T15:18:15;14.10;1.00
34201;DHT22;20469;55.638;37.670;2023-04-16T15:20:43;13.80;1.00
34201;DHT22;20469;55.638;37.670;2023-04-16T15:23:10;13.80;1.00
34201;DHT22;20469;55.638;37.670;2023-04-16T15:25:37;13.90;1.00
34201;DHT22;20469;55.638;37.670;2023-04-16T15:28:04;13.90;1.00
34201;DHT22;20469;55.638;37.670;2023-04-16T15:30:32;14.10;1.00
34201;DHT22;20469;55.638;37.670;2023-04-16T15:32:59;14.00;1.00
34201;DHT22;20469;55.638;37.670;2023-04-16T15:35:26;14.40;1.00
34201;DHT22;20469;55.638;37.670;2023-04-16T15:37:54;13.90;1.00
34201;DHT22;20469;55.638;37.670;2023-04-16T15:40:21;13.70;1.00
34201;DHT22;20469;55.638;37.670;2023-04-16T15:42:48;13.70;1.00
34201;DHT22;20469;55.638;37.670;2023-04-16T15:45:15;13.70;1.00
34201;DHT22;20469;55.638;37.670;2023-04-16T15:47:42;13.70;1.00
34201;DHT22;20469;55.638;37.670;2023-04-16T15:50:17;13.60;1.00
34201;DHT22;20469;55.638;37.670;2023-04-16T15:52:46;13.50;1.00